Adak, AK

3:43 AM HADT on September 22, 2014 (GMT -0900)
Adak | Change Station
CLOSE
Current Station
Airport
Location: Adak,
Elevation: 13 ft
Nearby Weather Stations

Elev 13 ft 51.88 °N, 176.65 °W | Updated 7 minutes ago

Overcast
Overcast
48 °F
Feels Like 48 °F
N
12
Wind Variable Wind from WSW

Today
High -- | Low -- °F
--% Chance of Precip.
Yesterday
High -- | Low -- °F
Precip. -- in
8:33 AM 8:44 PM
Waning Crescent, 3% visible
Pressure 29.80 in
Visibility 5.0 miles
Clouds Mostly Cloudy 600 ft
Overcast 7000 ft
Dew Point 45 °F
Humidity 87%
Rainfall 0.00 in
Snow Depth 1 in , 0 in , 0 in
UV 0 out of 12
Pollen Not available.
Air Quality Not available.
Flu Activity Not available.
METAR PADK 221236Z AUTO 25010KT 5SM BKN006 OVC070 09/07 A2980 RMK AO1

More Conditions Fewer Conditions

Pressure 29.80 in
Visibility 5.0 miles
Clouds Mostly Cloudy 600 ft
Overcast 7000 ft
Dew Point 45 °F
Humidity 87%
Rainfall 0.00 in
Snow Depth 1 in , 0 in , 0 in
UV 0 out of 12
Pollen Not available.
Air Quality Not available.
Flu Activity Not available.
METAR PADK 221236Z AUTO 25010KT 5SM BKN006 OVC070 09/07 A2980 RMK AO1

More Conditions Fewer Conditions

10-Day Weather Forecast

Almanac

Astronomy

Sep. 22, 2014 Rise Set
Actual Time 8:33 AM HADT 8:44 PM HADT
Civil Twilight 7:59 AM HADT 9:17 PM HADT
Nautical Twilight 7:19 AM HADT 9:57 PM HADT
Astronomical Twilight 6:38 AM HADT 10:38 PM HADT
Moon 7:09 AM HADT 8:02 PM HADT
Length of Visible Light 13h 18m
Length of Day
12h 11m
Tomorrow will be 3m 58s shorter.
Waning Crescent, 3% of the Moon is Illuminated
Today
Waning Crescent
Sep 24
New
Oct 1
First Quarter
Oct 8
Full
Oct 15
Last Quarter

Today's Extremes

State Highs State Lows

Community

WunderPhotos

Upload Photos

1,755,419 photos uploaded!

Nearby

Snow Depth

Station Depth Elevation
Indian Pass 1 in 2300 ft
Little Chena Ridge 0 in 2000 ft
Coldfoot 0 in 1040 ft
Summit Creek 0 in 1400 ft
Atigun Pass 4 in 4800 ft

Earthquake Activity

City Distance Mag. Time & Date
No recent earthquake activity has been reported nearby.
Minimum magnitude displayed is 2.5.

Coastal Water Temperatures

Place Temperature
No Stations Reporting

Nearby Weather Stations